Time;durP1;ratioP1;P1;durP2;ratioP2;P2;SDS_P1;SDS_P2;PMS_P1;PMS_P2;Temp;Humidity;BMP_temperature;BMP_pressure;BME280_temperature;BME280_humidity;BME280_pressure;Samples;Min_cycle;Max_cycle;Signal;HPM_P1;HPM_P2
2022/07/02 00:01:18;;;;;;;6.50;1.70;;;;;;;17.05;76.71;100742.13;106109;1271;24291;-63
2022/07/02 00:03:52;;;;;;;7.80;2.50;;;;;;;17.04;76.74;100733.68;106213;1271;26011;-64
2022/07/02 00:06:25;;;;;;;5.10;1.90;;;;;;;17.03;76.78;100725.84;106411;1268;25324;-64
2022/07/02 00:08:55;;;;;;;5.30;1.60;;;;;;;17.02;76.81;100730.60;105992;1271;22544;-65
2022/07/02 00:11:26;;;;;;;11.90;1.90;;;;;;;17.02;76.89;100738.09;106352;1268;23189;-63
2022/07/02 00:13:55;;;;;;;3.60;1.40;;;;;;;17.01;76.86;100747.83;106149;1270;22735;-64
2022/07/02 00:16:25;;;;;;;4.00;1.60;;;;;;;16.98;76.79;100749.94;106151;1268;22730;-63
2022/07/02 00:18:54;;;;;;;5.00;1.80;;;;;;;16.95;76.95;100748.34;106248;1271;23565;-63
2022/07/02 00:21:23;;;;;;;4.10;1.40;;;;;;;16.93;76.99;100748.50;106016;1271;24302;-62
2022/07/02 00:23:52;;;;;;;5.10;1.50;;;;;;;16.92;76.96;100758.02;106368;1268;22554;-63
2022/07/02 00:26:28;;;;;;;4.70;1.20;;;;;;;16.92;77.02;100756.73;106106;1271;22545;-63
2022/07/02 00:29:11;;;;;;;5.10;1.30;;;;;;;16.91;77.20;100751.15;106228;1268;24333;-63
2022/07/02 00:31:43;;;;;;;4.40;1.40;;;;;;;16.89;77.29;100755.09;106178;1271;25529;-65
2022/07/02 00:34:13;;;;;;;5.10;1.50;;;;;;;16.88;77.34;100757.77;106094;1271;22550;-63
2022/07/02 00:36:44;;;;;;;5.00;1.40;;;;;;;16.87;77.27;100759.98;106119;1268;22528;-63
2022/07/02 00:39:12;;;;;;;;;;;;;;;16.88;77.42;100766.23;106137;1271;24306;-62
2022/07/02 00:41:42;;;;;;;5.00;1.20;;;;;;;16.87;77.45;100765.20;106104;1268;22587;-64
2022/07/02 00:44:12;;;;;;;5.30;1.30;;;;;;;16.86;77.47;100763.81;106157;1271;25264;-64
2022/07/02 00:46:42;;;;;;;5.30;1.60;;;;;;;16.84;77.44;100760.42;106303;1268;22543;-63
2022/07/02 00:49:12;;;;;;;4.50;1.50;;;;;;;16.83;77.51;100764.02;106278;1268;24224;-62
2022/07/02 00:51:41;;;;;;;3.90;1.40;;;;;;;16.82;77.60;100766.94;106297;1268;25404;-64
2022/07/02 00:54:10;;;;;;;4.80;1.40;;;;;;;16.80;77.58;100760.73;106167;1271;27658;-63
2022/07/02 00:56:39;;;;;;;5.60;1.90;;;;;;;16.79;77.60;100766.46;106175;1271;24360;-63
2022/07/02 00:59:08;;;;;;;7.30;1.80;;;;;;;16.79;77.82;100772.11;106224;1271;22615;-63
2022/07/02 01:01:37;;;;;;;5.30;1.70;;;;;;;16.78;77.80;100774.05;106145;1271;25509;-62
2022/07/02 01:04:08;;;;;;;7.60;1.70;;;;;;;16.78;77.84;100772.36;106146;1272;22538;-62
2022/07/02 01:06:41;;;;;;;5.60;1.30;;;;;;;16.77;77.70;100778.04;106166;1268;23081;-63
2022/07/02 01:12:00;;;;;;;4.70;1.60;;;;;;;16.77;77.52;100781.48;105962;1271;22995;-63
2022/07/02 01:14:29;;;;;;;6.40;1.60;;;;;;;16.77;77.50;100781.28;106005;1271;22565;-62
2022/07/02 01:16:58;;;;;;;4.80;1.70;;;;;;;16.77;77.55;100784.51;106003;1271;22736;-65
2022/07/02 01:19:27;;;;;;;5.30;1.60;;;;;;;16.76;77.52;100784.60;106226;1271;25496;-63
2022/07/02 01:22:18;;;;;;;5.50;1.60;;;;;;;16.76;77.57;100784.41;106129;1268;22619;-62
2022/07/02 01:24:49;;;;;;;6.40;1.70;;;;;;;16.74;77.55;100792.40;105991;1272;22531;-63
2022/07/02 01:27:20;;;;;;;7.10;1.90;;;;;;;16.74;77.61;100796.85;106138;1268;25432;-63
2022/07/02 01:29:49;;;;;;;7.80;2.00;;;;;;;16.73;77.65;100795.11;106271;1268;25432;-64
2022/07/02 01:32:19;;;;;;;6.30;1.50;;;;;;;16.71;77.49;100802.95;106245;1268;22553;-63
2022/07/02 01:34:50;;;;;;;5.90;1.50;;;;;;;16.69;77.60;100803.14;106110;1271;22651;-62
2022/07/02 01:37:21;;;;;;;5.20;1.80;;;;;;;16.68;77.63;100804.67;106207;1268;24398;-61
2022/07/02 01:39:49;;;;;;;;;;;;;;;16.67;77.59;100806.31;106183;1268;22741;-62
2022/07/02 01:42:18;;;;;;;5.40;1.70;;;;;;;16.67;77.78;100820.10;106190;1268;22600;-63
2022/07/02 01:44:48;;;;;;;7.90;1.70;;;;;;;16.66;77.71;100824.66;106136;1268;23142;-63
2022/07/02 01:47:17;;;;;;;5.60;1.60;;;;;;;16.64;77.61;100827.38;106076;1271;24362;-63
2022/07/02 01:49:46;;;;;;;4.80;1.60;;;;;;;16.62;77.66;100834.33;106241;1268;25389;-63
2022/07/02 01:52:19;;;;;;;8.00;1.80;;;;;;;16.61;77.63;100846.84;106232;1271;22581;-63
2022/07/02 01:54:48;;;;;;;6.00;1.50;;;;;;;16.60;77.53;100858.10;106310;1268;25610;-62
2022/07/02 01:57:17;;;;;;;6.00;1.70;;;;;;;16.60;77.65;100860.20;106246;1271;25410;-63
2022/07/02 01:59:46;;;;;;;3.50;1.10;;;;;;;16.59;77.47;100868.15;106220;1268;24286;-62
2022/07/02 02:02:15;;;;;;;5.30;1.70;;;;;;;16.58;77.38;100873.63;105971;1268;22611;-63
2022/07/02 02:04:44;;;;;;;6.00;1.60;;;;;;;16.58;77.44;100874.34;106122;1271;26542;-61
2022/07/02 02:07:13;;;;;;;5.90;1.70;;;;;;;16.57;77.33;100876.80;106350;1268;22826;-63
2022/07/02 02:09:42;;;;;;;8.80;1.70;;;;;;;16.55;77.25;100871.98;106351;1268;22542;-63
2022/07/02 02:12:14;;;;;;;7.30;1.60;;;;;;;16.53;77.38;100878.52;106239;1271;24043;-62
2022/07/02 02:14:43;;;;;;;7.20;1.60;;;;;;;16.53;77.16;100893.27;106247;1271;24225;-63
2022/07/02 02:17:12;;;;;;;16.70;2.10;;;;;;;16.52;77.20;100898.77;106312;1271;24405;-62
2022/07/02 02:19:41;;;;;;;7.50;1.70;;;;;;;16.50;77.08;100900.34;106169;1268;24689;-62
2022/07/02 02:22:10;;;;;;;8.70;1.70;;;;;;;16.49;77.14;100903.91;106125;1268;22528;-62
2022/07/02 02:24:39;;;;;;;4.50;1.50;;;;;;;16.49;77.14;100904.21;106272;1268;23514;-63
2022/07/02 02:27:09;;;;;;;5.30;2.00;;;;;;;16.50;77.31;100902.12;106131;1268;22558;-62
2022/07/02 02:29:38;;;;;;;4.80;1.80;;;;;;;16.49;77.25;100901.90;106249;1268;24378;-62
2022/07/02 02:32:10;;;;;;;4.90;2.20;;;;;;;16.49;77.12;100897.34;106263;1268;22496;-63
2022/07/02 02:34:39;;;;;;;7.40;2.30;;;;;;;16.49;77.28;100900.88;106082;1268;25537;-64
2022/07/02 02:37:08;;;;;;;5.80;1.90;;;;;;;16.49;77.26;100906.16;106194;1271;25338;-62
2022/07/02 02:39:37;;;;;;;8.30;2.50;;;;;;;16.49;77.11;100907.64;106227;1268;25589;-62
2022/07/02 02:42:08;;;;;;;7.30;2.60;;;;;;;16.47;77.01;100901.63;106218;1268;24303;-64
2022/07/02 02:44:37;;;;;;;7.70;2.00;;;;;;;16.46;77.09;100899.52;106090;1270;22571;-63
2022/07/02 02:47:07;;;;;;;6.70;2.10;;;;;;;16.45;77.12;100899.25;106068;1271;22544;-63
2022/07/02 02:49:36;;;;;;;7.50;2.20;;;;;;;16.44;77.22;100900.84;106097;1268;25438;-64
2022/07/02 02:52:05;;;;;;;7.00;2.40;;;;;;;16.44;77.17;100892.23;106086;1271;22569;-63
2022/07/02 02:54:34;;;;;;;7.10;2.60;;;;;;;16.45;77.40;100895.27;106206;1268;23031;-64
2022/07/02 02:57:03;;;;;;;7.10;2.00;;;;;;;16.44;77.32;100898.44;106321;1268;22535;-63
2022/07/02 02:59:33;;;;;;;6.50;2.30;;;;;;;16.45;77.41;100898.70;106325;1268;27265;-64
2022/07/02 03:02:03;;;;;;;10.80;3.20;;;;;;;16.46;77.77;100900.39;106111;1269;22633;-62
2022/07/02 03:04:32;;;;;;;12.30;3.80;;;;;;;16.46;77.85;100901.36;106169;1268;24169;-64
2022/07/02 03:07:01;;;;;;;11.90;3.40;;;;;;;16.44;78.03;100901.30;106191;1271;24327;-63
2022/07/02 03:09:30;;;;;;;9.40;3.80;;;;;;;16.43;78.07;100901.29;102253;1269;5525345;-62
2022/07/02 03:12:03;;;;;;;10.50;4.40;;;;;;;16.42;78.13;100905.19;106172;1268;22538;-63
2022/07/02 03:14:33;;;;;;;10.20;5.00;;;;;;;16.42;78.38;100909.79;106084;1268;24312;-62
2022/07/02 03:17:02;;;;;;;14.30;4.90;;;;;;;16.42;78.44;100910.10;106211;1268;25426;-64
2022/07/02 03:19:31;;;;;;;12.90;5.20;;;;;;;16.41;78.53;100904.98;106123;1270;22569;-63
2022/07/02 03:22:00;;;;;;;16.60;6.80;;;;;;;16.40;78.58;100907.02;106240;1268;22531;-66
2022/07/02 03:24:29;;;;;;;17.70;8.00;;;;;;;16.37;78.50;100910.33;106272;1268;22554;-62
2022/07/02 03:26:58;;;;;;;19.40;7.60;;;;;;;16.36;78.55;100904.64;106084;1271;22576;-64
2022/07/02 03:29:27;;;;;;;21.70;8.60;;;;;;;16.35;78.90;100902.21;106220;1268;25977;-63
2022/07/02 03:31:57;;;;;;;15.70;7.90;;;;;;;16.32;78.84;100902.20;106032;1270;25418;-63
2022/07/02 03:34:26;;;;;;;14.50;6.80;;;;;;;16.31;78.93;100898.55;106183;1268;24305;-62
2022/07/02 03:36:55;;;;;;;16.80;7.30;;;;;;;16.27;79.10;100901.75;106109;1271;22554;-63
2022/07/02 03:39:26;;;;;;;14.60;5.50;;;;;;;16.23;79.40;100909.98;106452;1268;24294;-63
2022/07/02 03:41:56;;;;;;;13.20;6.30;;;;;;;16.20;79.59;100915.75;106197;1271;24324;-62
2022/07/02 03:44:25;;;;;;;16.10;5.90;;;;;;;16.17;79.87;100912.04;106238;1268;23210;-63
2022/07/02 03:46:56;;;;;;;13.50;5.20;;;;;;;16.15;79.88;100909.98;106168;1268;22573;-62
2022/07/02 03:49:24;;;;;;;11.90;5.50;;;;;;;16.12;80.44;100915.90;106195;1268;22535;-63
2022/07/02 03:51:53;;;;;;;11.70;5.60;;;;;;;16.08;80.03;100916.23;106274;1268;22547;-63
2022/07/02 03:54:22;;;;;;;14.90;6.60;;;;;;;16.04;80.10;100919.02;106305;1271;22684;-62
2022/07/02 03:56:51;;;;;;;18.10;5.80;;;;;;;16.01;80.20;100924.06;106282;1271;23465;-62
2022/07/02 03:59:20;;;;;;;12.30;5.20;;;;;;;15.99;80.40;100924.70;106310;1268;25216;-62
2022/07/02 04:01:49;;;;;;;12.90;5.60;;;;;;;15.96;80.66;100933.80;106290;1268;25251;-63
2022/07/02 04:04:19;;;;;;;11.90;5.60;;;;;;;15.90;81.13;100932.32;106189;1268;24225;-63
2022/07/02 04:06:48;;;;;;;18.10;6.60;;;;;;;15.87;81.20;100933.21;106112;1268;26735;-63
2022/07/02 04:09:17;;;;;;;17.00;5.40;;;;;;;15.86;81.20;100935.41;106119;1268;22561;-63
2022/07/02 04:11:46;;;;;;;14.10;5.80;;;;;;;15.85;81.45;100941.42;106272;1268;22565;-63
2022/07/02 04:14:14;;;;;;;13.40;5.20;;;;;;;15.82;81.60;100941.45;106235;1268;22731;-62
2022/07/02 04:16:43;;;;;;;11.30;4.80;;;;;;;15.80;81.75;100945.17;106228;1268;22748;-62
2022/07/02 04:19:12;;;;;;;10.60;4.80;;;;;;;15.78;81.50;100944.13;106308;1271;27736;-63
2022/07/02 04:21:42;;;;;;;15.40;5.40;;;;;;;15.75;82.31;100955.11;106414;1268;22562;-63
2022/07/02 04:24:12;;;;;;;17.20;5.00;;;;;;;15.69;82.11;100953.99;106208;1271;25336;-63
2022/07/02 04:26:41;;;;;;;10.80;4.70;;;;;;;15.70;82.14;100957.02;106178;1270;22532;-62
2022/07/02 04:29:11;;;;;;;12.70;5.60;;;;;;;15.69;82.50;100957.98;106231;1271;25601;-64
2022/07/02 04:31:39;;;;;;;10.00;4.20;;;;;;;15.67;82.38;100967.33;106127;1268;22662;-64
2022/07/02 04:34:08;;;;;;;10.10;3.90;;;;;;;15.65;82.68;100973.59;106210;1271;22547;-62
2022/07/02 04:36:39;;;;;;;13.40;5.60;;;;;;;15.61;82.75;100979.65;106278;1268;22529;-62
2022/07/02 04:39:07;;;;;;;;;;;;;;;15.59;83.16;100980.55;106210;1268;25997;-61
2022/07/02 04:41:35;;;;;;;12.00;4.50;;;;;;;15.56;83.04;100990.05;106234;1268;23119;-63
2022/07/02 04:44:05;;;;;;;12.70;4.90;;;;;;;15.55;83.16;100989.66;106245;1268;22593;-64
2022/07/02 04:46:34;;;;;;;11.30;4.60;;;;;;;15.54;83.31;100994.05;106100;1268;24324;-63
2022/07/02 04:49:03;;;;;;;13.70;3.90;;;;;;;15.51;83.20;100996.48;106297;1268;25585;-62
2022/07/02 04:51:32;;;;;;;9.10;3.50;;;;;;;15.50;83.19;100999.33;106134;1271;22560;-62
2022/07/02 04:54:01;;;;;;;12.50;5.20;;;;;;;15.49;83.12;100997.84;106148;1271;25368;-62
2022/07/02 04:56:30;;;;;;;12.10;3.90;;;;;;;15.51;83.25;101007.77;106211;1268;25278;-63
2022/07/02 04:58:59;;;;;;;10.80;3.20;;;;;;;15.53;83.25;101011.23;106434;1268;24533;-62
2022/07/02 05:01:29;;;;;;;9.60;4.30;;;;;;;15.55;83.70;101014.64;106201;1271;23259;-62
2022/07/02 05:03:58;;;;;;;11.10;3.00;;;;;;;15.57;83.45;101017.92;106346;1267;23219;-63
2022/07/02 05:06:27;;;;;;;9.60;2.60;;;;;;;15.60;83.40;101012.89;106418;1271;24212;-62
2022/07/02 05:08:59;;;;;;;8.20;2.70;;;;;;;15.62;83.36;101020.73;106079;1271;22554;-63
2022/07/02 05:11:29;;;;;;;5.30;2.20;;;;;;;15.64;83.41;101027.58;106248;1268;22477;-61
2022/07/02 05:13:59;;;;;;;6.00;2.10;;;;;;;15.66;83.22;101032.58;106224;1268;26526;-63
2022/07/02 05:16:28;;;;;;;6.50;2.10;;;;;;;15.66;83.22;101035.85;106372;1268;22580;-64
2022/07/02 05:18:57;;;;;;;5.10;2.20;;;;;;;15.66;83.17;101038.41;106116;1268;27429;-65
2022/07/02 05:21:26;;;;;;;6.00;2.30;;;;;;;15.64;83.63;101047.59;106440;1268;25566;-64
2022/07/02 05:23:55;;;;;;;7.40;2.60;;;;;;;15.59;83.53;101050.65;106267;1268;22611;-65
2022/07/02 05:26:24;;;;;;;8.10;2.30;;;;;;;15.59;83.49;101056.13;106224;1268;22557;-65
2022/07/02 05:28:54;;;;;;;4.50;1.70;;;;;;;15.58;83.35;101059.53;106096;1268;22819;-64
2022/07/02 05:31:23;;;;;;;6.80;1.70;;;;;;;15.60;83.30;101058.34;106421;1268;22628;-65
2022/07/02 05:33:52;;;;;;;8.00;1.80;;;;;;;15.60;83.43;101060.27;108839;1267;22519;-64
2022/07/02 05:36:21;;;;;;;6.20;2.10;;;;;;;15.60;83.42;101061.80;106527;1268;24239;-64
2022/07/02 05:38:50;;;;;;;4.90;1.30;;;;;;;15.61;83.37;101067.77;106117;1268;25655;-64
2022/07/02 05:41:19;;;;;;;5.90;1.70;;;;;;;15.63;83.14;101067.06;106266;1268;25408;-66
2022/07/02 05:43:48;;;;;;;5.90;1.70;;;;;;;15.65;83.16;101069.30;106277;1268;24440;-64
2022/07/02 05:46:17;;;;;;;4.40;1.80;;;;;;;15.67;83.08;101071.41;106275;1271;25381;-63
2022/07/02 05:48:46;;;;;;;9.70;2.90;;;;;;;15.72;83.09;101078.53;106263;1268;24255;-66
2022/07/02 05:51:16;;;;;;;5.90;2.50;;;;;;;15.75;82.77;101077.09;106291;1268;22543;-64
2022/07/02 05:53:45;;;;;;;12.00;3.00;;;;;;;15.79;82.49;101079.84;106366;1268;22525;-64
2022/07/02 05:56:15;;;;;;;7.30;1.50;;;;;;;15.82;82.34;101076.20;106236;1268;23533;-64
2022/07/02 05:58:44;;;;;;;4.00;1.10;;;;;;;15.86;82.18;101081.98;106364;1268;22815;-65
2022/07/02 06:01:13;;;;;;;9.40;1.40;;;;;;;15.89;81.59;101084.31;106126;1268;22442;-64
2022/07/02 06:03:42;;;;;;;6.90;1.20;;;;;;;15.91;81.49;101082.55;106324;1268;24692;-64
2022/07/02 06:08:58;;;;;;;5.30;1.70;;;;;;;15.99;81.28;101083.84;106218;1270;25122;-66
2022/07/02 06:11:29;;;;;;;3.70;1.30;;;;;;;16.02;81.32;101085.63;106294;1268;24278;-64
2022/07/02 06:13:58;;;;;;;7.30;1.80;;;;;;;16.07;81.23;101086.65;106343;1268;22483;-64
2022/07/02 06:16:29;;;;;;;6.20;1.90;;;;;;;16.10;81.12;101088.08;106216;1271;22532;-64
2022/07/02 06:18:59;;;;;;;5.20;1.80;;;;;;;16.13;80.90;101091.21;106159;1268;25473;-65
2022/07/02 06:21:28;;;;;;;5.90;1.80;;;;;;;16.17;80.76;101093.41;106366;1268;22639;-64
2022/07/02 06:23:57;;;;;;;9.10;2.10;;;;;;;16.22;80.70;101093.20;106245;1268;24268;-65
2022/07/02 06:26:26;;;;;;;7.50;1.90;;;;;;;16.26;80.15;101096.41;106287;1268;22557;-65
2022/07/02 06:28:56;;;;;;;7.40;2.00;;;;;;;16.29;79.93;101100.23;106226;1268;24225;-65
2022/07/02 06:31:25;;;;;;;5.70;1.80;;;;;;;16.33;80.04;101100.95;106321;1268;24231;-65
2022/07/02 06:33:54;;;;;;;5.30;1.60;;;;;;;16.38;79.95;101108.92;106262;1268;22570;-64
2022/07/02 06:36:24;;;;;;;8.60;1.80;;;;;;;16.42;79.66;101107.23;106213;1268;24388;-65
2022/07/02 06:38:53;;;;;;;8.40;1.70;;;;;;;16.45;79.26;101104.33;106350;1268;22547;-67
2022/07/02 06:44:09;;;;;;;7.60;3.10;;;;;;;16.56;79.00;101116.55;105864;1268;22537;-67
2022/07/02 06:46:38;;;;;;;8.40;1.80;;;;;;;16.60;78.32;101117.45;106429;1268;22728;-62
2022/07/02 06:49:07;;;;;;;7.40;1.80;;;;;;;16.61;77.81;101115.27;106157;1268;22554;-62
2022/07/02 06:51:36;;;;;;;6.30;1.30;;;;;;;16.63;78.16;101116.83;106732;1268;25333;-62
2022/07/02 06:54:09;;;;;;;5.80;1.50;;;;;;;16.68;78.18;101118.14;106038;1268;23336;-62
2022/07/02 06:56:39;;;;;;;5.60;1.70;;;;;;;16.72;78.13;101122.52;106384;1268;25375;-64
2022/07/02 06:59:08;;;;;;;9.50;1.70;;;;;;;16.75;77.99;101117.58;106047;1270;22663;-63
2022/07/02 07:01:37;;;;;;;6.10;1.50;;;;;;;16.81;78.07;101115.42;105980;1268;24347;-63
2022/07/02 07:04:06;;;;;;;11.30;1.80;;;;;;;16.92;78.03;101113.50;106020;1268;24321;-61
2022/07/02 07:06:35;;;;;;;5.90;1.40;;;;;;;17.05;77.56;101110.96;106154;1268;22680;-66
2022/07/02 07:09:05;;;;;;;6.10;1.10;;;;;;;17.16;76.96;101114.89;106176;1268;23230;-62
2022/07/02 07:11:33;;;;;;;;;;;;;;;17.30;75.03;101113.89;106095;1268;22511;-63
2022/07/02 07:14:03;;;;;;;5.70;0.80;;;;;;;17.45;74.87;101112.12;106390;1268;22544;-63
2022/07/02 07:16:32;;;;;;;4.30;0.70;;;;;;;17.56;73.61;101119.45;106358;1268;22645;-64
2022/07/02 07:19:01;;;;;;;4.60;1.00;;;;;;;17.61;73.11;101122.59;106133;1268;22601;-64
2022/07/02 07:21:31;;;;;;;2.20;0.60;;;;;;;17.71;73.25;101125.35;106077;1268;25386;-63
2022/07/02 07:24:00;;;;;;;2.40;0.60;;;;;;;17.83;72.06;101124.21;106081;1268;22532;-63
2022/07/02 07:26:29;;;;;;;3.90;0.80;;;;;;;17.93;71.83;101130.98;106393;1268;22538;-64
2022/07/02 07:28:58;;;;;;;3.70;0.70;;;;;;;17.99;72.15;101132.96;106151;1268;22775;-65
2022/07/02 07:31:29;;;;;;;4.60;0.70;;;;;;;18.07;71.97;101140.17;106130;1268;22577;-65
2022/07/02 07:33:57;;;;;;;;;;;;;;;18.10;71.39;101137.20;106183;1268;22576;-65
2022/07/02 07:36:27;;;;;;;2.50;0.60;;;;;;;18.08;70.57;101142.07;106779;1267;22674;-65
2022/07/02 07:38:56;;;;;;;2.80;0.70;;;;;;;18.01;70.50;101142.51;106061;1268;23081;-65
2022/07/02 07:41:27;;;;;;;2.10;0.60;;;;;;;17.99;70.41;101140.76;105920;1268;24230;-65
2022/07/02 07:43:56;;;;;;;7.20;0.90;;;;;;;18.05;70.54;101146.16;106086;1268;25638;-65
2022/07/02 07:46:26;;;;;;;2.40;0.50;;;;;;;18.12;69.64;101145.27;106983;1267;22551;-65
2022/07/02 07:48:56;;;;;;;2.80;0.60;;;;;;;18.12;69.34;101143.42;106090;1268;25452;-65
2022/07/02 07:51:25;;;;;;;3.50;0.50;;;;;;;18.14;69.35;101145.27;105937;1268;22554;-65
2022/07/02 07:53:54;;;;;;;3.40;0.40;;;;;;;18.24;69.59;101145.15;105975;1268;22555;-64
2022/07/02 07:56:23;;;;;;;3.40;0.50;;;;;;;18.37;68.82;101154.06;106016;1268;25336;-62
2022/07/02 07:58:52;;;;;;;5.30;0.50;;;;;;;18.36;67.61;101156.02;106221;1269;25322;-63
2022/07/02 08:01:22;;;;;;;2.00;0.40;;;;;;;18.32;67.10;101158.67;106237;1268;24284;-62
2022/07/02 08:03:51;;;;;;;3.10;0.50;;;;;;;18.29;68.26;101157.39;106196;1268;24414;-63
2022/07/02 08:06:20;;;;;;;2.90;0.50;;;;;;;18.41;68.29;101154.65;106043;1268;24307;-63
2022/07/02 08:08:49;;;;;;;1.30;0.30;;;;;;;18.52;67.62;101156.84;106776;1268;23081;-64
2022/07/02 08:11:18;;;;;;;3.50;0.40;;;;;;;18.66;66.27;101165.64;106101;1268;22573;-64
2022/07/02 08:13:47;;;;;;;2.40;0.40;;;;;;;18.67;66.37;101167.45;106152;1268;22609;-64
2022/07/02 08:16:16;;;;;;;3.10;0.40;;;;;;;18.76;66.68;101170.02;106105;1268;25270;-64
2022/07/02 08:18:45;;;;;;;2.40;0.30;;;;;;;18.91;65.91;101174.20;106138;1268;22550;-65
2022/07/02 08:21:14;;;;;;;1.90;0.20;;;;;;;18.97;65.79;101174.97;106099;1268;22548;-65
2022/07/02 08:23:44;;;;;;;3.80;0.40;;;;;;;18.98;65.43;101174.96;106095;1268;22628;-65
2022/07/02 08:26:13;;;;;;;4.50;0.40;;;;;;;19.01;65.57;101175.89;105930;1267;23445;-64
2022/07/02 08:28:42;;;;;;;1.50;0.30;;;;;;;19.05;64.79;101174.80;106076;1268;22537;-64
2022/07/02 08:31:10;;;;;;;2.10;0.30;;;;;;;19.06;64.21;101171.39;106237;1268;25341;-64
2022/07/02 08:33:39;;;;;;;3.60;0.30;;;;;;;19.10;64.85;101167.23;106198;1268;25390;-64
2022/07/02 08:36:10;;;;;;;1.60;0.30;;;;;;;19.26;64.15;101165.71;106197;1268;24795;-64
2022/07/02 08:38:39;;;;;;;2.60;0.30;;;;;;;19.40;63.39;101174.78;106164;1268;22541;-64
2022/07/02 08:41:10;;;;;;;1.20;0.20;;;;;;;19.39;62.89;101169.08;106101;1268;22561;-64
2022/07/02 08:43:42;;;;;;;1.20;0.20;;;;;;;19.46;62.88;101163.95;106188;1268;24376;-64
2022/07/02 08:46:12;;;;;;;1.10;0.30;;;;;;;19.64;62.68;101162.05;106029;1268;25336;-64
2022/07/02 08:48:42;;;;;;;3.40;0.20;;;;;;;19.77;61.78;101157.88;106026;1268;22557;-64
2022/07/02 08:51:14;;;;;;;1.50;0.10;;;;;;;19.77;60.35;101165.61;106132;1268;22543;-66
2022/07/02 08:53:44;;;;;;;2.10;0.20;;;;;;;19.75;59.00;101165.98;106038;1268;25258;-65
2022/07/02 08:56:13;;;;;;;1.90;0.10;;;;;;;19.77;59.73;101159.17;106017;1268;25492;-65
2022/07/02 08:58:42;;;;;;;4.80;0.20;;;;;;;19.88;59.87;101161.65;106021;1268;25379;-66
2022/07/02 09:01:13;;;;;;;3.00;0.20;;;;;;;20.07;59.75;101169.80;106057;1267;24237;-66
2022/07/02 09:03:44;;;;;;;3.20;0.30;;;;;;;20.13;59.65;101168.64;106163;1268;22570;-65
2022/07/02 09:06:14;;;;;;;2.40;0.30;;;;;;;20.16;59.90;101168.31;106083;1268;22602;-65
2022/07/02 09:08:45;;;;;;;2.00;0.30;;;;;;;20.17;59.46;101172.38;106103;1267;25256;-66
2022/07/02 09:11:14;;;;;;;3.00;0.50;;;;;;;20.19;59.42;101171.91;106194;1268;24281;-66
2022/07/02 09:13:44;;;;;;;1.80;0.20;;;;;;;20.26;59.31;101171.64;106028;1268;22550;-69
2022/07/02 09:16:13;;;;;;;;;;;;;;;20.31;58.56;101171.77;106105;1268;23121;-67
2022/07/02 09:18:42;;;;;;;3.40;0.20;;;;;;;20.41;57.41;101171.54;106025;1268;22561;-66
2022/07/02 09:21:10;;;;;;;1.90;0.30;;;;;;;20.47;57.29;101171.71;105846;1268;24272;-66
2022/07/02 09:23:47;;;;;;;1.00;0.20;;;;;;;20.53;56.83;101166.56;106176;1268;25346;-66
2022/07/02 09:26:20;;;;;;;2.00;0.20;;;;;;;20.57;56.79;101171.33;105997;1268;22640;-66
2022/07/02 09:28:59;;;;;;;2.50;0.30;;;;;;;20.58;57.13;101168.95;106316;1268;23042;-65
2022/07/02 09:31:29;;;;;;;1.50;0.30;;;;;;;20.54;56.31;101170.17;105896;1268;25573;-65
2022/07/02 09:33:59;;;;;;;1.80;0.30;;;;;;;20.52;56.27;101170.59;106167;1268;22535;-66
2022/07/02 09:36:29;;;;;;;2.60;0.30;;;;;;;20.60;56.00;101168.11;106325;1268;22679;-66
2022/07/02 09:38:59;;;;;;;1.30;0.20;;;;;;;20.67;55.51;101166.10;106112;1268;22659;-65
2022/07/02 09:41:30;;;;;;;1.50;0.20;;;;;;;20.70;55.24;101167.33;106030;1268;25425;-66
2022/07/02 09:43:59;;;;;;;;;;;;;;;20.68;54.91;101165.99;106181;1267;22489;-65
2022/07/02 09:46:31;;;;;;;3.50;0.30;;;;;;;20.65;55.79;101168.70;106161;1268;22599;-65
2022/07/02 09:49:08;;;;;;;4.20;0.40;;;;;;;20.68;56.02;101168.92;106086;1268;24244;-65
2022/07/02 09:51:49;;;;;;;4.10;0.60;;;;;;;20.77;56.09;101168.04;106066;1268;25372;-66
2022/07/02 09:54:24;;;;;;;4.20;0.50;;;;;;;20.89;56.06;101165.77;106044;1268;22570;-67
2022/07/02 09:56:55;;;;;;;4.70;1.10;;;;;;;21.03;55.94;101163.91;106000;1268;22594;-66
2022/07/02 09:59:25;;;;;;;1.20;0.30;;;;;;;21.15;54.70;101167.33;106066;1268;24208;-66
2022/07/02 10:01:54;;;;;;;;;;;;;;;21.15;54.12;101167.53;105941;1268;25410;-66
2022/07/02 10:04:29;;;;;;;1.60;0.30;;;;;;;21.10;54.60;101168.04;106129;1268;22635;-66
2022/07/02 10:07:01;;;;;;;2.10;0.30;;;;;;;21.14;54.73;101173.93;106133;1268;22630;-67
2022/07/02 10:09:32;;;;;;;1.40;0.50;;;;;;;21.20;54.08;101172.80;106334;1268;22566;-66
2022/07/02 10:12:01;;;;;;;10.10;0.80;;;;;;;21.24;53.95;101173.07;106109;1268;22532;-66
2022/07/02 10:14:35;;;;;;;8.50;0.60;;;;;;;21.23;54.14;101164.55;106162;1268;25213;-68
2022/07/02 10:17:08;;;;;;;3.00;0.30;;;;;;;21.29;53.90;101163.92;106226;1268;22613;-65
2022/07/02 10:19:40;;;;;;;2.90;0.60;;;;;;;21.38;54.03;101163.23;106112;1268;22563;-64
2022/07/02 10:22:11;;;;;;;6.10;0.80;;;;;;;21.42;53.28;101162.65;106017;1268;25385;-64
2022/07/02 10:24:41;;;;;;;2.10;0.50;;;;;;;21.50;53.69;101164.16;106038;1268;22580;-64
2022/07/02 10:27:11;;;;;;;6.80;0.80;;;;;;;21.63;53.17;101171.61;108186;1268;22593;-65
2022/07/02 10:29:44;;;;;;;2.60;0.50;;;;;;;21.73;53.07;101164.11;106251;1268;22540;-66
2022/07/02 10:32:26;;;;;;;7.00;0.80;;;;;;;21.77;52.07;101164.69;106105;1268;22573;-66
2022/07/02 10:35:09;;;;;;;3.80;0.50;;;;;;;21.73;52.71;101160.96;106345;1268;22556;-66
2022/07/02 10:37:41;;;;;;;12.70;1.00;;;;;;;21.80;52.45;101163.84;105980;1268;22696;-65
2022/07/02 10:40:18;;;;;;;7.00;0.90;;;;;;;21.85;52.54;101155.14;106017;1268;25432;-65
2022/07/02 10:42:52;;;;;;;3.60;0.60;;;;;;;21.89;51.83;101154.54;106173;1268;25382;-66
2022/07/02 10:45:23;;;;;;;6.40;0.50;;;;;;;21.85;50.51;101154.95;106253;1268;22532;-67
2022/07/02 10:48:10;;;;;;;5.30;0.50;;;;;;;21.77;50.59;101152.23;106134;1268;22624;-66
2022/07/02 10:50:46;;;;;;;3.90;0.70;;;;;;;21.80;51.25;101150.40;106049;1268;23411;-68
2022/07/02 10:53:17;;;;;;;2.60;0.70;;;;;;;21.89;51.64;101150.34;105963;1268;22577;-68
2022/07/02 10:56:02;;;;;;;3.60;0.50;;;;;;;21.97;51.32;101151.48;106043;1268;25605;-68
2022/07/02 10:58:32;;;;;;;3.80;0.50;;;;;;;21.93;50.83;101149.89;106128;1268;24275;-68
2022/07/02 11:01:12;;;;;;;4.70;0.60;;;;;;;21.90;51.34;101150.39;106312;1268;24364;-67
2022/07/02 11:03:53;;;;;;;2.00;0.40;;;;;;;21.97;51.04;101149.11;106032;1268;22557;-67
2022/07/02 11:06:26;;;;;;;1.60;0.50;;;;;;;22.05;50.35;101146.62;106374;1268;24800;-66
2022/07/02 11:08:59;;;;;;;2.70;0.50;;;;;;;22.14;49.75;101146.44;109450;1268;23150;-69
2022/07/02 11:11:53;;;;;;;4.40;1.20;;;;;;;22.25;49.76;101140.77;106415;1268;26010;-66
2022/07/02 11:14:26;;;;;;;2.10;0.40;;;;;;;22.28;49.16;101145.46;108856;1267;23057;-66
2022/07/02 11:16:57;;;;;;;2.60;0.30;;;;;;;22.25;48.98;101146.64;106274;1268;22541;-66
2022/07/02 11:19:29;;;;;;;2.00;0.50;;;;;;;22.21;48.91;101143.30;106250;1268;24731;-66
2022/07/02 11:22:03;;;;;;;1.70;0.40;;;;;;;22.18;49.09;101142.00;105777;1268;22605;-66
2022/07/02 11:24:33;;;;;;;3.50;0.50;;;;;;;22.20;49.18;101140.55;106148;1268;25260;-65
2022/07/02 11:27:04;;;;;;;2.80;0.50;;;;;;;22.17;48.98;101144.76;106021;1262;22579;-66
2022/07/02 11:29:33;;;;;;;;;;;;;;;22.14;49.16;101140.55;105891;1270;22522;-68
2022/07/02 11:32:05;;;;;;;1.70;0.50;;;;;;;22.12;49.45;101138.61;105993;1270;22873;-67
2022/07/02 11:34:35;;;;;;;4.00;0.50;;;;;;;22.13;49.15;101135.60;105819;1270;22688;-67
2022/07/02 11:37:05;;;;;;;5.50;0.50;;;;;;;22.15;48.25;101135.69;106289;1270;22544;-68
2022/07/02 11:39:36;;;;;;;15.30;5.40;;;;;;;22.16;48.55;101132.05;105792;1270;22561;-68